createdAt,value
2023-04-22T00:04:05.434Z,100527.38
2023-04-22T00:08:58.637Z,100521.27
2023-04-22T00:13:51.401Z,100521.54
2023-04-22T00:18:44.260Z,100518.23
2023-04-22T00:23:37.004Z,100520.77
2023-04-22T00:28:29.717Z,100516.93
2023-04-22T00:33:22.401Z,100514.52
2023-04-22T00:38:15.204Z,100508.79
2023-04-22T00:43:09.548Z,100511.63
2023-04-22T00:48:03.199Z,100510.02
2023-04-22T00:52:56.055Z,100506.33
2023-04-22T00:57:50.261Z,100510.18
2023-04-22T01:02:43.430Z,100517.05
2023-04-22T01:07:36.653Z,100514.17
2023-04-22T01:12:29.380Z,100509.11
2023-04-22T01:17:24.867Z,100509.98
2023-04-22T01:22:18.216Z,100509.16
2023-04-22T01:27:10.951Z,100511.96
2023-04-22T01:32:04.364Z,100510.08
2023-04-22T01:36:57.119Z,100511.10
2023-04-22T01:41:50.001Z,100511.95
2023-04-22T01:46:42.795Z,100512.95
2023-04-22T01:51:35.585Z,100517.31
2023-04-22T01:56:28.285Z,100510.37
2023-04-22T02:01:21.873Z,100511.20
2023-04-22T02:06:14.645Z,100505.30
2023-04-22T02:11:07.366Z,100507.66
2023-04-22T02:16:00.651Z,100503.28
2023-04-22T02:20:53.499Z,100501.48
2023-04-22T02:25:52.663Z,100497.48
2023-04-22T02:30:46.629Z,100491.09
2023-04-22T02:35:40.912Z,100491.85
2023-04-22T02:40:33.594Z,100495.86
2023-04-22T02:45:26.373Z,100493.95
2023-04-22T02:50:19.422Z,100498.05
2023-04-22T02:55:12.191Z,100500.61
2023-04-22T03:00:05.631Z,100494.95
2023-04-22T03:04:58.416Z,100500.20
2023-04-22T03:09:51.171Z,100499.63
2023-04-22T03:14:43.885Z,100500.30
2023-04-22T03:19:36.841Z,100505.27
2023-04-22T03:24:29.745Z,100510.63
2023-04-22T03:29:22.519Z,100512.11
2023-04-22T03:34:15.493Z,100514.83
2023-04-22T03:39:09.077Z,100517.66
2023-04-22T03:44:02.158Z,100517.87
2023-04-22T03:48:55.774Z,100520.92
2023-04-22T03:53:59.680Z,100529.68
2023-04-22T03:58:53.822Z,100529.05
2023-04-22T04:03:46.909Z,100528.61
2023-04-22T04:08:40.436Z,100533.89
2023-04-22T04:13:33.714Z,100532.98
2023-04-22T04:18:41.648Z,100532.61
2023-04-22T04:23:34.902Z,100534.34
2023-04-22T04:28:30.338Z,100536.19
2023-04-22T04:33:23.160Z,100538.09
2023-04-22T04:38:16.198Z,100537.25
2023-04-22T04:43:09.377Z,100542.14
2023-04-22T04:48:09.077Z,100544.95
2023-04-22T04:53:04.030Z,100546.83
2023-04-22T04:58:01.734Z,100542.04
2023-04-22T05:02:54.662Z,100541.88
2023-04-22T05:07:47.889Z,100542.22
2023-04-22T05:12:41.802Z,100542.75
2023-04-22T05:17:36.752Z,100541.49
2023-04-22T05:22:29.623Z,100546.34
2023-04-22T05:27:22.656Z,100547.23
2023-04-22T05:32:15.563Z,100547.14
2023-04-22T05:37:09.843Z,100541.02
2023-04-22T05:42:03.550Z,100541.39
2023-04-22T05:46:57.047Z,100536.83
2023-04-22T05:51:51.602Z,100532.88
2023-04-22T05:56:46.273Z,100531.42
2023-04-22T06:01:39.087Z,100528.52
2023-04-22T06:06:33.873Z,100529.60
2023-04-22T06:11:26.617Z,100530.52
2023-04-22T06:16:19.443Z,100528.45
2023-04-22T06:21:12.808Z,100533.48
2023-04-22T06:26:05.838Z,100522.22
2023-04-22T06:30:58.852Z,100520.27
2023-04-22T06:35:51.539Z,100518.17
2023-04-22T06:40:44.449Z,100513.23
2023-04-22T06:45:53.671Z,100517.04
2023-04-22T06:51:05.905Z,100508.62
2023-04-22T06:55:58.640Z,100500.00
2023-04-22T07:00:51.862Z,100493.27
2023-04-22T07:05:44.834Z,100492.96
2023-04-22T07:10:38.030Z,100495.19
2023-04-22T07:15:50.443Z,100488.86
2023-04-22T07:20:45.492Z,100483.83
2023-04-22T07:25:38.196Z,100481.41
2023-04-22T07:30:30.885Z,100478.20
2023-04-22T07:35:23.708Z,100475.71
2023-04-22T07:40:16.479Z,100473.16
2023-04-22T07:45:09.864Z,100472.06
2023-04-22T07:50:02.584Z,100468.06
2023-04-22T07:54:55.274Z,100464.68
2023-04-22T07:59:47.970Z,100467.84
2023-04-22T08:04:41.017Z,100466.54
2023-04-22T08:09:33.788Z,100468.94
2023-04-22T08:14:26.500Z,100471.97
2023-04-22T08:19:19.942Z,100473.02
2023-04-22T08:24:12.712Z,100463.78
2023-04-22T08:29:05.881Z,100463.41
2023-04-22T08:33:58.589Z,100455.58
2023-04-22T08:38:51.342Z,100457.27
2023-04-22T08:43:45.412Z,100459.67
2023-04-22T08:48:38.653Z,100462.41
2023-04-22T08:53:32.337Z,100458.27
2023-04-22T08:58:25.340Z,100456.41
2023-04-22T09:03:19.164Z,100453.80
2023-04-22T09:08:12.274Z,100451.48
2023-04-22T09:13:06.119Z,100446.20
2023-04-22T09:17:59.184Z,100447.27
2023-04-22T09:22:51.956Z,100443.45
2023-04-22T09:27:44.651Z,100439.59
2023-04-22T09:32:37.373Z,100433.92
2023-04-22T09:37:39.315Z,100425.08
2023-04-22T09:42:49.208Z,100420.64
2023-04-22T09:47:41.964Z,100415.77
2023-04-22T09:52:35.000Z,100412.80
2023-04-22T09:57:28.048Z,100407.98
2023-04-22T10:02:29.785Z,100400.38
2023-04-22T10:07:22.619Z,100401.10
2023-04-22T10:12:16.712Z,100394.33
2023-04-22T10:17:14.537Z,100392.89
2023-04-22T10:22:07.688Z,100395.75
2023-04-22T10:27:02.953Z,100401.93
2023-04-22T10:32:05.880Z,100399.94
2023-04-22T10:37:04.472Z,100395.27
2023-04-22T10:42:10.241Z,100396.52
2023-04-22T10:47:03.063Z,100395.21
2023-04-22T10:52:03.004Z,100384.00
2023-04-22T10:57:09.095Z,100372.13
2023-04-22T11:02:06.997Z,100370.27
2023-04-22T11:07:20.539Z,100373.01
2023-04-22T11:12:32.182Z,100374.15
2023-04-22T11:17:25.194Z,100371.66
2023-04-22T11:22:17.900Z,100370.23
2023-04-22T11:27:10.659Z,100370.59
2023-04-22T11:32:04.415Z,100371.76
2023-04-22T11:36:59.238Z,100366.63
2023-04-22T11:41:54.435Z,100358.66
2023-04-22T11:46:47.163Z,100353.94
2023-04-22T11:52:05.148Z,100345.60
2023-04-22T11:57:03.155Z,100345.08
2023-04-22T12:01:55.935Z,100341.81
2023-04-22T12:06:48.775Z,100343.67
2023-04-22T12:11:41.656Z,100344.86
2023-04-22T12:16:43.902Z,100340.56
2023-04-22T12:21:36.736Z,100342.09
2023-04-22T12:26:29.490Z,100344.21
2023-04-22T12:31:22.614Z,100341.14
2023-04-22T12:36:15.748Z,100340.23
2023-04-22T12:41:09.439Z,100341.67
2023-04-22T12:46:02.420Z,100335.84
2023-04-22T12:50:57.457Z,100333.38
2023-04-22T12:55:50.615Z,100330.45
2023-04-22T13:00:43.412Z,100322.93
2023-04-22T13:05:36.220Z,100315.28
2023-04-22T13:10:30.207Z,100311.36
2023-04-22T13:15:22.925Z,100313.04
2023-04-22T13:20:16.532Z,100313.86
2023-04-22T13:25:09.554Z,100309.74
2023-04-22T13:30:02.233Z,100307.71
2023-04-22T13:34:54.945Z,100302.76
2023-04-22T13:39:47.682Z,100303.70
2023-04-22T13:44:40.485Z,100301.31
2023-04-22T13:49:33.314Z,100296.66
2023-04-22T13:54:26.186Z,100295.30
2023-04-22T13:59:18.908Z,100297.02
2023-04-22T14:04:13.872Z,100292.58
2023-04-22T14:09:07.166Z,100288.02
2023-04-22T14:13:59.906Z,100282.15
2023-04-22T14:18:53.116Z,100281.95
2023-04-22T14:23:45.951Z,100278.98
2023-04-22T14:28:39.233Z,100279.73
2023-04-22T14:33:32.833Z,100272.34
2023-04-22T14:38:25.948Z,100272.51
2023-04-22T14:43:19.392Z,100268.36
2023-04-22T14:48:12.092Z,100268.57
2023-04-22T14:53:04.850Z,100267.11
2023-04-22T14:57:57.899Z,100264.70
2023-04-22T15:02:51.139Z,100262.48
2023-04-22T15:07:44.098Z,100261.13
2023-04-22T15:12:36.795Z,100259.77
2023-04-22T15:17:31.190Z,100259.13
2023-04-22T15:22:24.593Z,100260.39
2023-04-22T15:27:17.411Z,100260.25
2023-04-22T15:32:10.358Z,100257.76
2023-04-22T15:37:03.112Z,100260.33
2023-04-22T15:41:56.895Z,100254.81
2023-04-22T15:46:49.968Z,100254.25
2023-04-22T15:51:43.332Z,100249.54
2023-04-22T15:56:36.582Z,100248.21
2023-04-22T16:01:29.510Z,100247.08
2023-04-22T16:06:22.346Z,100244.77
2023-04-22T16:11:15.500Z,100242.69
2023-04-22T16:16:08.645Z,100238.92
2023-04-22T16:21:02.192Z,100237.95
2023-04-22T16:25:55.160Z,100242.95
2023-04-22T16:30:48.020Z,100241.10
2023-04-22T16:35:40.906Z,100244.60
2023-04-22T16:40:33.633Z,100239.29
2023-04-22T16:45:26.346Z,100239.29
2023-04-22T16:50:20.297Z,100238.12
2023-04-22T16:55:13.248Z,100238.09
2023-04-22T17:00:07.170Z,100238.36
2023-04-22T17:05:01.273Z,100244.50
2023-04-22T17:09:53.957Z,100247.95
2023-04-22T17:14:47.304Z,100249.75
2023-04-22T17:19:40.651Z,100248.23
2023-04-22T17:24:33.754Z,100246.09
2023-04-22T17:29:27.044Z,100249.55
2023-04-22T17:34:19.915Z,100252.95
2023-04-22T17:39:13.495Z,100251.31
2023-04-22T17:44:07.629Z,100254.86
2023-04-22T17:49:00.407Z,100259.01
2023-04-22T17:53:53.454Z,100262.92
2023-04-22T17:58:46.465Z,100270.49
2023-04-22T18:03:39.393Z,100279.70
2023-04-22T18:08:32.271Z,100281.73
2023-04-22T18:13:25.033Z,100280.42
2023-04-22T18:18:17.849Z,100282.38
2023-04-22T18:23:11.170Z,100285.17
2023-04-22T18:28:04.029Z,100285.61
2023-04-22T18:32:57.610Z,100287.66
2023-04-22T18:37:50.538Z,100295.07
2023-04-22T18:42:45.094Z,100299.15
2023-04-22T18:47:37.945Z,100303.90
2023-04-22T18:52:30.718Z,100306.90
2023-04-22T18:57:23.790Z,100301.67
2023-04-22T19:02:17.440Z,100302.36
2023-04-22T19:07:10.210Z,100300.27
2023-04-22T19:12:03.067Z,100304.60
2023-04-22T19:16:55.868Z,100300.21
2023-04-22T19:21:48.597Z,100299.14
2023-04-22T19:26:42.251Z,100304.31
2023-04-22T19:31:35.237Z,100309.48
2023-04-22T19:36:28.309Z,100306.31
2023-04-22T19:41:28.240Z,100309.02
2023-04-22T19:46:21.542Z,100306.64
2023-04-22T19:51:15.337Z,100307.23
2023-04-22T19:56:09.514Z,100306.63
2023-04-22T20:01:02.469Z,100304.63
2023-04-22T20:05:55.392Z,100303.85
2023-04-22T20:10:49.848Z,100300.77
2023-04-22T20:15:42.802Z,100300.16
2023-04-22T20:20:35.969Z,100301.81
2023-04-22T20:25:28.960Z,100308.44
2023-04-22T20:30:21.826Z,100302.83
2023-04-22T20:35:16.888Z,100300.13
2023-04-22T20:40:09.856Z,100304.02
2023-04-22T20:45:02.592Z,100306.67
2023-04-22T20:49:55.356Z,100302.70
2023-04-22T20:54:54.999Z,100309.10
2023-04-22T20:59:47.840Z,100310.48
2023-04-22T21:04:42.041Z,100306.98
2023-04-22T21:09:35.020Z,100309.20
2023-04-22T21:14:28.214Z,100306.27
2023-04-22T21:19:21.362Z,100306.45
2023-04-22T21:24:15.376Z,100304.79
2023-04-22T21:29:08.181Z,100309.77
2023-04-22T21:34:05.154Z,100312.77
2023-04-22T21:38:58.559Z,100314.77
2023-04-22T21:43:51.277Z,100312.48
2023-04-22T21:48:44.333Z,100315.14
2023-04-22T21:53:37.313Z,100314.44
2023-04-22T21:58:29.879Z,100312.87
2023-04-22T22:03:23.001Z,100312.09
2023-04-22T22:08:15.779Z,100313.30
2023-04-22T22:13:08.451Z,100312.56
2023-04-22T22:18:02.322Z,100320.79
2023-04-22T22:22:54.995Z,100318.46
2023-04-22T22:27:49.431Z,100317.61
2023-04-22T22:32:43.409Z,100318.85
2023-04-22T22:37:36.748Z,100323.76
2023-04-22T22:42:29.728Z,100319.36
2023-04-22T22:47:22.511Z,100324.67
2023-04-22T22:52:15.593Z,100321.29
2023-04-22T22:57:08.939Z,100324.44
2023-04-22T23:02:02.271Z,100322.94
2023-04-22T23:06:55.309Z,100324.95
2023-04-22T23:11:50.015Z,100329.18
2023-04-22T23:16:43.073Z,100328.73
2023-04-22T23:21:36.224Z,100325.02
2023-04-22T23:26:29.132Z,100324.44
2023-04-22T23:31:24.229Z,100320.63
2023-04-22T23:36:18.851Z,100317.44
2023-04-22T23:41:11.758Z,100314.98
2023-04-22T23:46:04.785Z,100313.09
2023-04-22T23:50:57.551Z,100316.42
2023-04-22T23:55:50.416Z,100313.95
